Terminal Aerodrome Forecast
Issued by NWS

Home | Current Version | Previous Version | Text Only | Print | Product List | Glossary On
Versions: 1 2 3 4 5 6 7 8 9 10 11 12
738
FTUS45 KMSO 191721
TAFSMN
TAF
KSMN 191721Z 1918/2018 00000KT 4SM BR BKN060 OVC080
     FM192000 00000KT 4SM BR VCSH BKN040 OVC060
     FM200200 00000KT 2SM BR BKN060
      AMD LTD TO CLD VIS AND WIND=

USA.gov is the U.S. government's official web portal to all federal, state and local government web resources and services.